createdAt,value
2022-10-23T00:01:41.913Z,71.83
2022-10-23T00:03:44.401Z,71.91
2022-10-23T00:05:46.191Z,72.04
2022-10-23T00:07:55.128Z,72.12
2022-10-23T00:09:56.779Z,72.37
2022-10-23T00:11:58.499Z,72.07
2022-10-23T00:14:02.444Z,72.39
2022-10-23T00:16:04.799Z,72.39
2022-10-23T00:18:06.529Z,72.29
2022-10-23T00:20:08.811Z,72.05
2022-10-23T00:22:11.310Z,72.04
2022-10-23T00:24:13.093Z,72.25
2022-10-23T00:26:16.021Z,71.93
2022-10-23T00:28:18.008Z,72.25
2022-10-23T00:30:19.772Z,72.32
2022-10-23T00:32:21.474Z,72.22
2022-10-23T00:34:23.113Z,72.24
2022-10-23T00:36:24.874Z,72.52
2022-10-23T00:38:26.682Z,72.58
2022-10-23T00:40:28.323Z,72.89
2022-10-23T00:42:30.030Z,73.24
2022-10-23T00:44:31.591Z,73.05
2022-10-23T00:46:34.542Z,73.42
2022-10-23T00:48:36.384Z,74.00
2022-10-23T00:50:38.360Z,73.48
2022-10-23T00:52:45.444Z,73.64
2022-10-23T00:54:47.137Z,73.71
2022-10-23T00:56:49.460Z,74.16
2022-10-23T00:58:51.149Z,73.98
2022-10-23T01:00:55.827Z,74.01
2022-10-23T01:02:57.864Z,73.98
2022-10-23T01:04:59.627Z,74.05
2022-10-23T01:07:25.707Z,73.94
2022-10-23T01:09:51.390Z,73.85
2022-10-23T01:11:57.604Z,73.92
2022-10-23T01:14:15.536Z,74.05
2022-10-23T01:16:23.767Z,74.34
2022-10-23T01:18:36.145Z,74.20
2022-10-23T01:21:01.804Z,74.48
2022-10-23T01:23:15.269Z,74.27
2022-10-23T01:25:29.654Z,74.06
2022-10-23T01:27:39.902Z,74.21
2022-10-23T01:29:46.681Z,74.34
2022-10-23T01:31:58.157Z,74.60
2022-10-23T01:34:23.349Z,74.13
2022-10-23T01:36:28.819Z,74.36
2022-10-23T01:38:47.192Z,74.47
2022-10-23T01:40:56.053Z,74.37
2022-10-23T01:43:08.208Z,74.27
2022-10-23T01:45:17.950Z,74.47
2022-10-23T01:47:24.073Z,74.24
2022-10-23T01:49:25.706Z,74.39
2022-10-23T01:51:29.763Z,74.43
2022-10-23T01:53:36.699Z,74.29
2022-10-23T01:57:45.747Z,74.58
2022-10-23T01:59:52.913Z,74.62
2022-10-23T02:01:57.192Z,74.37
2022-10-23T02:09:07.716Z,74.62
2022-10-23T02:11:21.816Z,74.49
2022-10-23T02:13:31.566Z,74.66
2022-10-23T02:15:45.693Z,74.15
2022-10-23T02:18:02.925Z,74.53
2022-10-23T02:20:13.355Z,74.54
2022-10-23T02:22:38.443Z,74.52
2022-10-23T02:25:05.301Z,74.59
2022-10-23T02:27:32.132Z,74.47
2022-10-23T02:29:39.187Z,74.73
2022-10-23T02:31:40.955Z,74.61
2022-10-23T02:33:44.718Z,74.18
2022-10-23T02:35:47.373Z,74.38
2022-10-23T02:38:00.081Z,74.66
2022-10-23T02:40:04.042Z,74.57
2022-10-23T02:42:22.301Z,74.89
2022-10-23T02:44:23.861Z,74.92
2022-10-23T02:46:51.455Z,74.84
2022-10-23T02:49:21.265Z,74.75
2022-10-23T02:51:36.336Z,74.70
2022-10-23T02:54:26.306Z,75.17
2022-10-23T02:56:45.657Z,75.56
2022-10-23T02:58:59.386Z,75.30
2022-10-23T03:01:20.164Z,75.91
2022-10-23T03:03:24.408Z,75.50
2022-10-23T03:05:31.264Z,76.12
2022-10-23T03:07:33.713Z,75.65
2022-10-23T03:09:37.087Z,75.71
2022-10-23T03:11:38.804Z,76.19
2022-10-23T03:13:40.411Z,75.94
2022-10-23T03:15:42.183Z,76.09
2022-10-23T03:17:43.887Z,76.13
2022-10-23T03:19:45.510Z,76.17
2022-10-23T03:21:47.137Z,76.16
2022-10-23T03:23:48.873Z,76.14
2022-10-23T03:25:53.214Z,76.09
2022-10-23T03:27:55.005Z,75.97
2022-10-23T03:29:56.810Z,76.14
2022-10-23T03:31:58.440Z,75.98
2022-10-23T03:34:00.497Z,75.93
2022-10-23T03:36:02.316Z,75.87
2022-10-23T03:38:04.069Z,76.37
2022-10-23T03:40:06.294Z,76.03
2022-10-23T03:42:08.099Z,75.89
2022-10-23T03:44:09.755Z,76.11
2022-10-23T03:46:13.057Z,75.79
2022-10-23T03:48:14.952Z,76.04
2022-10-23T03:50:16.714Z,75.84
2022-10-23T03:52:18.450Z,75.93
2022-10-23T03:54:22.588Z,76.23
2022-10-23T03:56:24.443Z,76.04
2022-10-23T03:58:26.255Z,75.83
2022-10-23T04:00:27.898Z,75.74
2022-10-23T04:02:29.644Z,75.53
2022-10-23T04:04:31.325Z,75.52
2022-10-23T04:06:33.096Z,75.32
2022-10-23T04:08:35.301Z,75.13
2022-10-23T04:10:37.045Z,74.98
2022-10-23T04:12:38.832Z,74.94
2022-10-23T04:14:40.465Z,74.93
2022-10-23T04:16:42.798Z,74.77
2022-10-23T04:18:44.548Z,75.06
2022-10-23T04:20:49.575Z,74.90
2022-10-23T04:22:51.282Z,74.95
2022-10-23T04:24:52.955Z,74.95
2022-10-23T04:26:54.739Z,74.50
2022-10-23T04:28:56.402Z,74.35
2022-10-23T04:30:58.135Z,74.30
2022-10-23T04:33:00.120Z,74.14
2022-10-23T04:35:02.165Z,74.22
2022-10-23T04:37:03.860Z,74.13
2022-10-23T04:39:05.741Z,74.31
2022-10-23T04:41:07.515Z,73.79
2022-10-23T04:43:09.197Z,73.74
2022-10-23T04:45:11.216Z,74.04
2022-10-23T04:47:13.005Z,73.87
2022-10-23T04:49:14.678Z,73.76
2022-10-23T04:51:16.372Z,74.09
2022-10-23T04:53:18.010Z,73.75
2022-10-23T04:55:19.654Z,74.05
2022-10-23T04:57:21.492Z,73.93
2022-10-23T04:59:23.115Z,73.90
2022-10-23T05:01:24.846Z,73.67
2022-10-23T05:03:27.130Z,74.01
2022-10-23T05:05:28.753Z,73.85
2022-10-23T05:07:30.480Z,73.64
2022-10-23T05:09:32.185Z,73.47
2022-10-23T05:11:33.912Z,73.65
2022-10-23T05:13:35.732Z,73.60
2022-10-23T05:15:37.453Z,73.63
2022-10-23T05:17:43.012Z,73.66
2022-10-23T05:19:58.410Z,73.38
2022-10-23T05:22:00.664Z,73.33
2022-10-23T05:24:02.495Z,73.62
2022-10-23T05:26:04.977Z,73.40
2022-10-23T05:28:06.692Z,73.12
2022-10-23T05:30:08.824Z,72.88
2022-10-23T05:32:12.696Z,72.85
2022-10-23T05:34:17.352Z,72.98
2022-10-23T05:36:19.036Z,72.77
2022-10-23T05:38:21.338Z,72.61
2022-10-23T05:40:23.996Z,72.78
2022-10-23T05:42:25.787Z,72.85
2022-10-23T05:44:27.453Z,72.96
2022-10-23T05:46:29.137Z,72.28
2022-10-23T05:48:34.751Z,72.31
2022-10-23T05:50:37.707Z,72.30
2022-10-23T05:52:39.340Z,72.28
2022-10-23T05:54:41.240Z,71.83
2022-10-23T05:56:42.968Z,72.18
2022-10-23T05:58:45.445Z,71.80
2022-10-23T06:00:47.063Z,71.99
2022-10-23T06:02:48.676Z,72.02
2022-10-23T06:04:50.327Z,71.78
2022-10-23T06:06:51.967Z,71.89
2022-10-23T06:08:54.311Z,71.51
2022-10-23T06:10:56.529Z,71.50
2022-10-23T06:12:58.142Z,71.19
2022-10-23T06:14:59.917Z,71.47
2022-10-23T06:17:01.547Z,71.61
2022-10-23T06:19:03.527Z,71.55
2022-10-23T06:21:05.538Z,71.77
2022-10-23T06:23:07.681Z,71.60
2022-10-23T06:25:09.596Z,71.86
2022-10-23T06:27:11.323Z,71.96
2022-10-23T06:29:13.000Z,72.26
2022-10-23T06:31:16.514Z,72.28
2022-10-23T06:33:18.218Z,72.09
2022-10-23T06:35:19.957Z,72.04
2022-10-23T06:37:21.591Z,72.01
2022-10-23T06:39:25.188Z,72.18
2022-10-23T06:41:28.949Z,71.72
2022-10-23T06:43:30.759Z,72.09
2022-10-23T06:45:34.130Z,71.96
2022-10-23T06:47:35.782Z,72.15
2022-10-23T06:49:37.568Z,72.08
2022-10-23T06:51:39.204Z,72.24
2022-10-23T06:53:41.260Z,72.78
2022-10-23T06:55:43.032Z,72.86
2022-10-23T06:57:45.439Z,73.29
2022-10-23T06:59:47.489Z,73.43
2022-10-23T07:01:49.484Z,74.28
2022-10-23T07:03:51.299Z,74.39
2022-10-23T07:06:02.157Z,75.16
2022-10-23T07:08:06.882Z,74.73
2022-10-23T07:10:08.706Z,75.61
2022-10-23T07:12:10.455Z,76.14
2022-10-23T07:14:12.296Z,75.95
2022-10-23T07:16:18.613Z,76.07
2022-10-23T07:18:20.232Z,75.77
2022-10-23T07:20:22.284Z,76.51
2022-10-23T07:22:24.019Z,76.44
2022-10-23T07:24:25.855Z,76.64
2022-10-23T07:26:27.966Z,76.02
2022-10-23T07:28:29.582Z,76.59
2022-10-23T07:30:31.873Z,76.71
2022-10-23T07:32:33.765Z,76.58
2022-10-23T07:34:36.947Z,76.48
2022-10-23T07:36:38.689Z,76.59
2022-10-23T07:38:40.865Z,77.42
2022-10-23T07:40:42.478Z,77.88
2022-10-23T07:42:44.345Z,77.71
2022-10-23T07:44:46.005Z,77.67
2022-10-23T07:46:47.626Z,77.69
2022-10-23T07:48:49.474Z,77.62
2022-10-23T07:50:51.616Z,77.95
2022-10-23T07:52:53.299Z,77.80
2022-10-23T07:54:55.041Z,77.92
2022-10-23T07:56:56.646Z,78.12
2022-10-23T07:58:58.337Z,77.88
2022-10-23T08:01:02.605Z,78.16
2022-10-23T08:03:04.258Z,78.10
2022-10-23T08:05:06.400Z,78.08
2022-10-23T08:07:08.041Z,77.85
2022-10-23T08:09:09.654Z,77.81
2022-10-23T08:11:14.067Z,78.16
2022-10-23T08:13:16.310Z,78.21
2022-10-23T08:15:17.927Z,78.28
2022-10-23T08:17:19.556Z,78.80
2022-10-23T08:19:21.225Z,79.33
2022-10-23T08:21:22.910Z,79.78
2022-10-23T08:23:24.565Z,80.07
2022-10-23T08:25:26.246Z,80.03
2022-10-23T08:27:27.990Z,79.68
2022-10-23T08:29:29.636Z,80.27
2022-10-23T08:31:31.441Z,80.02
2022-10-23T08:33:33.126Z,80.95
2022-10-23T08:35:38.283Z,81.18
2022-10-23T08:37:40.041Z,80.61
2022-10-23T08:39:41.919Z,80.77
2022-10-23T08:41:49.306Z,80.32
2022-10-23T08:44:17.055Z,80.54
2022-10-23T08:46:23.955Z,80.30
2022-10-23T08:48:49.874Z,80.23
2022-10-23T08:50:57.583Z,81.17
2022-10-23T08:53:25.816Z,80.91
2022-10-23T08:55:33.549Z,80.93
2022-10-23T08:57:43.714Z,80.79
2022-10-23T09:00:08.763Z,81.21
2022-10-23T09:02:16.115Z,81.21
2022-10-23T09:04:17.930Z,81.35
2022-10-23T09:06:35.235Z,81.29
2022-10-23T09:08:51.831Z,81.14
2022-10-23T09:11:04.467Z,82.40
2022-10-23T09:13:32.408Z,83.13
2022-10-23T09:15:55.601Z,82.83
2022-10-23T09:18:07.834Z,82.96
2022-10-23T09:20:48.408Z,83.38
2022-10-23T09:22:58.426Z,83.15
2022-10-23T09:25:00.088Z,83.22
2022-10-23T09:27:01.745Z,83.41
2022-10-23T09:29:19.768Z,83.25
2022-10-23T09:31:21.388Z,83.32
2022-10-23T09:33:25.864Z,83.30
2022-10-23T09:35:30.652Z,83.29
2022-10-23T09:37:34.522Z,82.75
2022-10-23T09:39:37.026Z,82.96
2022-10-23T09:41:40.179Z,83.00
2022-10-23T09:43:41.894Z,82.70
2022-10-23T09:45:44.137Z,83.04
2022-10-23T09:47:45.956Z,83.17
2022-10-23T09:49:50.721Z,83.46
2022-10-23T09:52:06.058Z,84.06
2022-10-23T09:54:16.837Z,84.12
2022-10-23T09:56:26.586Z,84.65
2022-10-23T09:58:35.311Z,85.48
2022-10-23T10:00:49.250Z,84.74
2022-10-23T10:03:01.207Z,84.62
2022-10-23T10:05:27.380Z,84.46
2022-10-23T10:07:33.405Z,84.34
2022-10-23T10:09:37.591Z,84.63
2022-10-23T10:11:48.187Z,84.90
2022-10-23T10:14:02.078Z,85.29
2022-10-23T10:16:27.516Z,85.49
2022-10-23T10:19:04.843Z,85.14
2022-10-23T10:21:51.321Z,85.23
2022-10-23T10:24:29.162Z,85.53
2022-10-23T10:26:37.115Z,85.60
2022-10-23T10:29:00.639Z,85.11
2022-10-23T10:31:26.814Z,84.89
2022-10-23T10:33:43.659Z,84.70
2022-10-23T10:36:11.394Z,84.22
2022-10-23T10:38:44.211Z,84.17
2022-10-23T10:41:24.650Z,84.02
2022-10-23T10:43:32.250Z,84.14
2022-10-23T10:45:38.955Z,83.68
2022-10-23T10:47:47.733Z,83.24
2022-10-23T10:50:08.069Z,83.33
2022-10-23T10:52:12.662Z,83.31
2022-10-23T10:54:26.746Z,83.21
2022-10-23T10:56:31.611Z,83.21
2022-10-23T10:58:45.977Z,83.55
2022-10-23T11:00:55.948Z,84.31
2022-10-23T11:03:03.009Z,83.45
2022-10-23T11:05:19.828Z,84.46
2022-10-23T11:07:31.995Z,84.92
2022-10-23T11:09:33.903Z,84.97
2022-10-23T11:11:40.813Z,85.21
2022-10-23T11:13:44.812Z,85.56
2022-10-23T11:15:47.424Z,86.20
2022-10-23T11:17:53.751Z,85.44
2022-10-23T11:20:16.997Z,85.18
2022-10-23T11:22:43.069Z,84.22
2022-10-23T11:25:36.583Z,83.68
2022-10-23T11:28:07.206Z,83.29
2022-10-23T11:30:32.235Z,83.30
2022-10-23T11:33:11.526Z,81.94
2022-10-23T11:35:37.663Z,81.47
2022-10-23T11:37:39.378Z,81.27
2022-10-23T11:40:13.786Z,81.81
2022-10-23T11:42:40.128Z,82.43
2022-10-23T11:44:43.649Z,81.85
2022-10-23T11:46:45.367Z,80.57
2022-10-23T11:48:47.861Z,79.44
2022-10-23T11:50:52.511Z,79.07
2022-10-23T11:53:12.892Z,79.12
2022-10-23T11:55:22.512Z,77.78
2022-10-23T11:57:24.227Z,77.45
2022-10-23T11:59:25.824Z,77.26
2022-10-23T12:01:34.252Z,76.83
2022-10-23T12:03:49.060Z,76.06
2022-10-23T12:06:05.233Z,76.44
2022-10-23T12:08:20.164Z,75.81
2022-10-23T12:10:31.974Z,75.37
2022-10-23T12:12:51.502Z,75.64
2022-10-23T12:15:40.230Z,76.10
2022-10-23T12:18:31.905Z,74.95
2022-10-23T12:21:09.258Z,74.17
2022-10-23T12:23:53.508Z,74.24
2022-10-23T12:26:37.109Z,73.21
2022-10-23T12:28:50.887Z,72.00
2022-10-23T12:31:49.499Z,71.72
2022-10-23T12:34:40.925Z,71.75
2022-10-23T12:38:00.649Z,70.51
2022-10-23T12:40:32.821Z,70.38
2022-10-23T12:42:48.575Z,70.30
2022-10-23T12:45:21.431Z,70.11
2022-10-23T12:47:57.511Z,70.69
2022-10-23T12:50:30.959Z,69.97
2022-10-23T12:52:47.026Z,69.98
2022-10-23T12:54:55.783Z,69.62
2022-10-23T12:57:30.896Z,69.66
2022-10-23T12:59:39.505Z,69.38
2022-10-23T13:01:50.378Z,69.69
2022-10-23T13:04:35.095Z,70.26
2022-10-23T13:06:51.011Z,70.15
2022-10-23T13:09:09.298Z,70.31
2022-10-23T13:13:54.927Z,69.47
2022-10-23T13:16:28.208Z,69.52
2022-10-23T13:18:54.973Z,68.65
2022-10-23T13:21:14.706Z,68.51
2022-10-23T13:23:36.062Z,68.17
2022-10-23T13:26:12.710Z,67.58
2022-10-23T13:28:43.068Z,66.38
2022-10-23T13:30:46.437Z,66.18
2022-10-23T13:32:48.173Z,65.45
2022-10-23T13:35:10.151Z,64.47
2022-10-23T13:37:31.185Z,64.20
2022-10-23T13:39:34.201Z,63.63
2022-10-23T13:41:41.121Z,63.98
2022-10-23T13:43:44.601Z,63.84
2022-10-23T13:45:59.396Z,63.24
2022-10-23T13:48:01.013Z,62.85
2022-10-23T13:50:02.615Z,63.39
2022-10-23T13:52:04.315Z,63.03
2022-10-23T13:54:14.771Z,63.07
2022-10-23T13:56:19.255Z,63.21
2022-10-23T13:58:20.913Z,63.52
2022-10-23T14:00:22.559Z,62.65
2022-10-23T14:02:25.016Z,62.31
2022-10-23T14:04:26.771Z,62.51
2022-10-23T14:06:28.367Z,61.70
2022-10-23T14:08:30.076Z,62.46
2022-10-23T14:10:31.750Z,62.62
2022-10-23T14:12:43.155Z,62.93
2022-10-23T14:14:45.107Z,62.92
2022-10-23T14:16:46.734Z,63.14
2022-10-23T14:18:48.435Z,62.81
2022-10-23T14:20:50.677Z,62.34
2022-10-23T14:22:52.350Z,61.34
2022-10-23T14:24:54.017Z,61.70
2022-10-23T14:26:57.567Z,61.62
2022-10-23T14:29:04.157Z,62.13
2022-10-23T14:31:15.829Z,61.99
2022-10-23T14:33:17.573Z,62.17
2022-10-23T14:35:19.225Z,61.73
2022-10-23T14:37:21.452Z,62.17
2022-10-23T14:39:23.426Z,61.92
2022-10-23T14:41:26.370Z,61.72
2022-10-23T14:43:28.256Z,61.95
2022-10-23T14:45:29.903Z,61.77
2022-10-23T14:47:33.155Z,61.40
2022-10-23T14:49:35.705Z,60.71
2022-10-23T14:51:37.410Z,59.88
2022-10-23T14:53:39.055Z,60.02
2022-10-23T14:55:40.714Z,60.15
2022-10-23T14:57:42.564Z,60.16
2022-10-23T14:59:44.334Z,60.34
2022-10-23T15:01:48.475Z,60.99
2022-10-23T15:03:55.799Z,61.64
2022-10-23T15:06:06.665Z,62.03
2022-10-23T15:08:08.284Z,62.63
2022-10-23T15:10:10.306Z,62.82
2022-10-23T15:12:12.410Z,63.24
2022-10-23T15:14:14.185Z,63.65
2022-10-23T15:16:16.598Z,64.01
2022-10-23T15:18:19.642Z,64.61
2022-10-23T15:20:21.333Z,64.60
2022-10-23T15:22:23.217Z,64.91
2022-10-23T15:24:24.901Z,65.49
2022-10-23T15:26:27.007Z,65.66
2022-10-23T15:28:29.710Z,66.13
2022-10-23T15:30:31.388Z,68.49
2022-10-23T15:32:33.039Z,69.30
2022-10-23T15:34:34.725Z,69.78
2022-10-23T15:36:36.785Z,70.28
2022-10-23T15:38:38.469Z,70.89
2022-10-23T15:40:41.004Z,71.15
2022-10-23T15:42:42.943Z,71.19
2022-10-23T15:44:44.990Z,70.85
2022-10-23T15:46:47.038Z,71.98
2022-10-23T15:48:48.666Z,72.55
2022-10-23T15:50:50.366Z,71.76
2022-10-23T15:52:53.390Z,72.77
2022-10-23T15:54:55.000Z,72.04
2022-10-23T15:56:56.668Z,72.17
2022-10-23T15:58:58.392Z,72.20
2022-10-23T16:01:06.469Z,72.45
2022-10-23T16:03:08.402Z,72.93
2022-10-23T16:05:10.070Z,73.26
2022-10-23T16:07:11.689Z,73.64
2022-10-23T16:09:14.252Z,73.15
2022-10-23T16:11:28.608Z,73.31
2022-10-23T16:13:30.383Z,73.43
2022-10-23T16:15:35.530Z,74.46
2022-10-23T16:17:37.203Z,76.91
2022-10-23T16:19:39.270Z,74.81
2022-10-23T16:21:42.249Z,67.76
2022-10-23T16:23:43.935Z,67.31
2022-10-23T16:25:55.726Z,68.22
2022-10-23T16:27:58.976Z,68.27
2022-10-23T16:30:00.618Z,66.74
2022-10-23T16:32:02.263Z,67.80
2022-10-23T16:34:05.562Z,68.59
2022-10-23T16:36:09.626Z,69.04
2022-10-23T16:38:11.483Z,70.09
2022-10-23T16:40:13.598Z,69.48
2022-10-23T16:42:15.367Z,70.45
2022-10-23T16:44:17.199Z,70.63
2022-10-23T16:46:21.514Z,71.07
2022-10-23T16:48:23.138Z,70.91
2022-10-23T16:50:24.754Z,71.59
2022-10-23T16:52:27.580Z,72.08
2022-10-23T16:54:29.232Z,72.96
2022-10-23T16:56:31.197Z,73.16
2022-10-23T16:58:33.898Z,73.67
2022-10-23T17:00:35.599Z,73.86
2022-10-23T17:02:38.188Z,73.11
2022-10-23T17:04:40.232Z,73.63
2022-10-23T17:06:57.394Z,73.65
2022-10-23T17:09:20.960Z,73.76
2022-10-23T17:11:48.688Z,73.55
2022-10-23T17:14:20.502Z,73.52
2022-10-23T17:16:41.450Z,73.00
2022-10-23T17:18:51.440Z,73.42
2022-10-23T17:21:18.012Z,73.72
2022-10-23T17:23:33.657Z,73.22
2022-10-23T17:26:28.711Z,73.73
2022-10-23T17:28:51.715Z,74.06
2022-10-23T17:31:37.368Z,74.55
2022-10-23T17:33:40.025Z,75.16
2022-10-23T17:35:41.952Z,75.29
2022-10-23T17:37:55.858Z,75.69
2022-10-23T17:40:15.059Z,75.27
2022-10-23T17:42:37.790Z,75.35
2022-10-23T17:44:46.548Z,75.69
2022-10-23T17:47:05.292Z,75.16
2022-10-23T17:49:26.474Z,75.03
2022-10-23T17:52:00.109Z,75.02
2022-10-23T17:54:17.912Z,74.63
2022-10-23T17:56:35.811Z,74.55
2022-10-23T17:58:58.030Z,74.93
2022-10-23T18:01:21.850Z,75.09
2022-10-23T18:03:37.249Z,74.76
2022-10-23T18:05:57.853Z,75.10
2022-10-23T18:08:01.992Z,75.12
2022-10-23T18:10:05.045Z,75.50
2022-10-23T18:12:15.893Z,75.78
2022-10-23T18:14:38.508Z,75.98
2022-10-23T18:17:07.349Z,75.84
2022-10-23T18:19:17.846Z,75.33
2022-10-23T18:21:30.654Z,75.34
2022-10-23T18:23:55.008Z,75.57
2022-10-23T18:26:17.447Z,75.52
2022-10-23T18:28:29.831Z,75.18
2022-10-23T18:30:44.734Z,75.41
2022-10-23T18:33:11.340Z,75.20
2022-10-23T18:35:33.025Z,75.72
2022-10-23T18:37:45.927Z,75.24
2022-10-23T18:40:02.392Z,75.09
2022-10-23T18:42:26.439Z,75.39
2022-10-23T18:44:37.298Z,75.25
2022-10-23T18:46:57.897Z,75.21
2022-10-23T18:49:09.445Z,75.44
2022-10-23T18:51:41.632Z,75.16
2022-10-23T18:53:54.381Z,75.03
2022-10-23T18:56:20.606Z,74.97
2022-10-23T18:58:38.191Z,74.75
2022-10-23T19:00:59.513Z,74.05
2022-10-23T19:03:24.190Z,74.27
2022-10-23T19:05:25.914Z,74.43
2022-10-23T19:07:39.104Z,74.71
2022-10-23T19:09:56.619Z,74.62
2022-10-23T19:12:21.555Z,74.69
2022-10-23T19:14:23.546Z,75.05
2022-10-23T19:16:54.852Z,75.44
2022-10-23T19:19:29.110Z,75.74
2022-10-23T19:21:53.828Z,75.77
2022-10-23T19:23:57.796Z,75.75
2022-10-23T19:26:09.401Z,75.94
2022-10-23T19:28:11.081Z,76.27
2022-10-23T19:30:19.319Z,75.77
2022-10-23T19:32:23.605Z,76.20
2022-10-23T19:34:25.456Z,76.06
2022-10-23T19:36:27.076Z,76.47
2022-10-23T19:38:28.799Z,76.73
2022-10-23T19:40:30.638Z,76.63
2022-10-23T19:42:38.315Z,76.47
2022-10-23T19:45:01.220Z,76.40
2022-10-23T19:47:22.332Z,76.32
2022-10-23T19:49:50.054Z,75.60
2022-10-23T19:52:02.125Z,75.29
2022-10-23T19:54:04.749Z,74.88
2022-10-23T19:56:28.868Z,75.02
2022-10-23T19:59:00.424Z,75.55
2022-10-23T20:01:33.451Z,75.55
2022-10-23T20:03:55.633Z,75.23
2022-10-23T20:06:23.694Z,75.57
2022-10-23T20:08:39.771Z,75.55
2022-10-23T20:11:02.308Z,76.23
2022-10-23T20:13:27.215Z,75.59
2022-10-23T20:15:49.248Z,75.51
2022-10-23T20:18:04.221Z,75.59
2022-10-23T20:20:25.799Z,75.22
2022-10-23T20:22:30.316Z,75.06
2022-10-23T20:24:32.114Z,74.65
2022-10-23T20:26:48.185Z,74.84
2022-10-23T20:29:11.523Z,74.75
2022-10-23T20:31:15.233Z,74.84
2022-10-23T20:33:17.027Z,75.12
2022-10-23T20:35:18.816Z,74.89
2022-10-23T20:37:20.661Z,74.61
2022-10-23T20:39:26.871Z,74.12
2022-10-23T20:41:29.115Z,74.88
2022-10-23T20:43:35.010Z,75.85
2022-10-23T20:45:36.653Z,75.67
2022-10-23T20:47:38.440Z,76.24
2022-10-23T20:49:40.069Z,77.07
2022-10-23T20:51:42.204Z,77.07
2022-10-23T20:53:44.993Z,78.28
2022-10-23T20:55:46.656Z,77.71
2022-10-23T20:57:48.411Z,77.62
2022-10-23T20:59:50.227Z,78.10
2022-10-23T21:01:53.619Z,78.60
2022-10-23T21:03:58.203Z,79.38
2022-10-23T21:06:12.625Z,80.07
2022-10-23T21:08:14.354Z,80.15
2022-10-23T21:10:16.071Z,80.04
2022-10-23T21:12:17.944Z,79.76
2022-10-23T21:14:19.602Z,79.48
2022-10-23T21:16:27.591Z,80.00
2022-10-23T21:20:43.095Z,79.25
2022-10-23T21:22:45.188Z,79.04
2022-10-23T21:24:47.295Z,79.54
2022-10-23T21:26:49.009Z,79.51
2022-10-23T21:28:56.203Z,79.79
2022-10-23T21:31:12.963Z,80.58
2022-10-23T21:33:15.553Z,79.55
2022-10-23T21:35:17.224Z,79.33
2022-10-23T21:37:18.865Z,79.21
2022-10-23T21:39:20.613Z,79.32
2022-10-23T21:41:25.233Z,78.54
2022-10-23T21:43:27.015Z,78.14
2022-10-23T21:45:28.810Z,78.69
2022-10-23T21:47:30.510Z,78.47
2022-10-23T21:49:32.239Z,78.66
2022-10-23T21:51:37.805Z,79.34
2022-10-23T21:53:39.435Z,79.41
2022-10-23T21:55:41.333Z,79.32
2022-10-23T21:57:43.030Z,79.50
2022-10-23T21:59:44.743Z,79.82
2022-10-23T22:01:48.760Z,79.71
2022-10-23T22:03:50.840Z,79.09
2022-10-23T22:06:03.529Z,78.86
2022-10-23T22:08:05.429Z,78.82
2022-10-23T22:10:07.585Z,79.30
2022-10-23T22:12:10.961Z,79.56
2022-10-23T22:14:12.608Z,80.36
2022-10-23T22:16:22.773Z,80.79
2022-10-23T22:18:24.437Z,80.62
2022-10-23T22:20:26.249Z,81.03
2022-10-23T22:22:27.928Z,81.83
2022-10-23T22:24:29.647Z,81.70
2022-10-23T22:26:40.984Z,81.64
2022-10-23T22:28:42.662Z,81.93
2022-10-23T22:30:44.362Z,81.77
2022-10-23T22:32:46.366Z,82.10
2022-10-23T22:34:52.701Z,83.31
2022-10-23T22:36:55.588Z,82.64
2022-10-23T22:38:57.365Z,82.95
2022-10-23T22:41:02.571Z,83.28
2022-10-23T22:43:04.684Z,83.46
2022-10-23T22:45:06.983Z,83.92
2022-10-23T22:47:08.640Z,84.77
2022-10-23T22:49:12.504Z,85.21
2022-10-23T22:51:16.308Z,85.45
2022-10-23T22:53:17.932Z,85.98
2022-10-23T22:55:19.740Z,85.65
2022-10-23T22:57:22.689Z,85.90
2022-10-23T22:59:24.354Z,85.94
2022-10-23T23:01:28.191Z,85.67
2022-10-23T23:03:30.019Z,85.91
2022-10-23T23:05:31.877Z,86.58
2022-10-23T23:07:33.569Z,86.00
2022-10-23T23:09:40.676Z,85.94
2022-10-23T23:11:51.224Z,85.96
2022-10-23T23:13:54.111Z,85.37
2022-10-23T23:15:56.626Z,84.96
2022-10-23T23:17:58.720Z,84.30
2022-10-23T23:20:00.482Z,84.11
2022-10-23T23:22:02.634Z,83.72
2022-10-23T23:24:04.489Z,83.58
2022-10-23T23:26:09.371Z,84.11
2022-10-23T23:28:15.987Z,83.72
2022-10-23T23:30:17.690Z,83.66
2022-10-23T23:32:19.434Z,83.20
2022-10-23T23:34:21.259Z,82.44
2022-10-23T23:36:26.548Z,82.56
2022-10-23T23:38:28.242Z,82.87
2022-10-23T23:40:29.964Z,83.20
2022-10-23T23:42:31.924Z,83.29
2022-10-23T23:44:38.888Z,83.01
2022-10-23T23:46:47.547Z,82.80
2022-10-23T23:48:50.070Z,83.19
2022-10-23T23:50:51.780Z,83.24
2022-10-23T23:52:53.490Z,83.35
2022-10-23T23:54:55.245Z,82.86
2022-10-23T23:56:59.887Z,83.14
2022-10-23T23:59:01.583Z,82.90
